WetterOnline ( https://www.wetteronline.at )

Wetter aktuell Freiburg im Breisgau

Aktuelles Wetter: Freiburg/Flugplatz (236m)

6-stündlich | Neueste Meldungen
Ortszeit Temperatur Wetter
Do, 20.02. 13:00 10.8° C leicht bewölkt
Do, 20.02. 7:00 6.9° C bedeckt
Do, 20.02. 1:00 6.6° C leichter Regen
Mi, 19.02. 19:00 5.4° C bedeckt
Mi, 19.02. 13:00 7.2° C wolkig
Mi, 19.02. 7:00 6.7° C leichter Regen
Mi, 19.02. 1:00 7.6° C wolkig
Di, 18.02. 19:00 7.6° C bedeckt
Ortszeit Temperatur Wetter
Do, 20.02. 17:00 12.4° C wolkenlos
Do, 20.02. 16:50 12.4° C wolkenlos
Do, 20.02. 16:40 12.2° C wolkenlos
Do, 20.02. 16:30 12.0° C leicht bewölkt
Do, 20.02. 16:20 12.0° C leicht bewölkt
Do, 20.02. 16:10 12.3° C bewölkt
Do, 20.02. 16:00 12.5° C wolkig
Do, 20.02. 15:30 12.3° C bedeckt
Do, 20.02. 15:00 12.1° C leicht bewölkt
Do, 20.02. 14:30 11.9° C leicht bewölkt
Do, 20.02. 14:00 11.4° C leicht bewölkt
Ortszeit Relative Feuchte Sichtweite
Do, 20.02. 13:00 54% 30 km
Do, 20.02. 7:00 70% 70 km
Do, 20.02. 1:00 64% 45 km
Mi, 19.02. 19:00 67% 55 km
Mi, 19.02. 13:00 58% 70 km
Mi, 19.02. 7:00 70% 26 km
Mi, 19.02. 1:00 60% 65 km
Di, 18.02. 19:00 59% 65 km
Ortszeit Relative Feuchte Sichtweite
Do, 20.02. 17:00 53% 70 km
Do, 20.02. 16:50 53% -
Do, 20.02. 16:40 54% -
Do, 20.02. 16:30 53% 70 km
Do, 20.02. 16:20 53% -
Do, 20.02. 16:10 52% -
Do, 20.02. 16:00 52% 40 km
Do, 20.02. 15:30 52% 40 km
Do, 20.02. 15:00 53% 27 km
Do, 20.02. 14:30 53% 50 km
Do, 20.02. 14:00 54% 30 km
Ortszeit Niederschlagsmenge Niederschlagsart
Do, 20.02. 13:00 0.0 l/m2 in 6 Std. -
Do, 20.02. 7:00 0.1 l/m2 in 12 Std. Regen
Do, 20.02. 1:00 0.1 l/m2 in 6 Std. Regen
Mi, 19.02. 19:00 2 l/m2 in 12 Std. Regen
Mi, 19.02. 13:00 0.8 l/m2 in 6 Std. Regen
Mi, 19.02. 7:00 0.1 l/m2 in 12 Std. Regen
Mi, 19.02. 1:00 0.0 l/m2 in 6 Std. -
Di, 18.02. 19:00 0.0 l/m2 in 12 Std. -
Ortszeit Niederschlagsmenge Niederschlagsart
Do, 20.02. 17:00 0.0 l/m2 in 1 Std. -
Do, 20.02. 16:50 keine Meldung -
Do, 20.02. 16:40 keine Meldung -
Do, 20.02. 16:30 0.0 l/m2 in 1 Std. -
Do, 20.02. 16:20 keine Meldung -
Do, 20.02. 16:10 keine Meldung -
Do, 20.02. 16:00 0.0 l/m2 in 1 Std. -
Do, 20.02. 15:30 0.0 l/m2 in 1 Std. -
Do, 20.02. 15:00 0.0 l/m2 in 1 Std. -
Do, 20.02. 14:30 0.0 l/m2 in 1 Std. -
Do, 20.02. 14:00 0.0 l/m2 in 1 Std. -
Ortszeit Stärke Spitze Richtung
km/h Bft. km/h Grad Sektor
Do, 20.02. 13:00 20 4 35 220° SW
Do, 20.02. 7:00 18 3 40 210° SW
Do, 20.02. 1:00 22 4 32 210° SW
Mi, 19.02. 19:00 7 2 33 200° S
Mi, 19.02. 13:00 20 4 50 270° W
Mi, 19.02. 7:00 28 4 59 220° SW
Mi, 19.02. 1:00 25 4 36 210° SW
Di, 18.02. 19:00 13 3 41 220° SW
Ortszeit Stärke Spitze Richtung
km/h Bft. km/h Grad Sektor
Do, 20.02. 17:00 14 3 32 220° SW
Do, 20.02. 16:50 14 3 - 220° SW
Do, 20.02. 16:40 14 3 - 220° SW
Do, 20.02. 16:30 17 3 31 240° SW
Do, 20.02. 16:20 17 3 - 240° SW
Do, 20.02. 16:10 14 3 - 210° SW
Do, 20.02. 16:00 14 3 32 230° SW
Do, 20.02. 15:30 22 4 32 210° SW
Do, 20.02. 15:00 22 4 33 210° SW
Do, 20.02. 14:30 17 3 30 210° SW
Do, 20.02. 14:00 22 4 32 210° SW
Ortszeit Untergrenze Bedeckung Gattung
total tief tief mittel hoch
Do, 20.02. 13:00 7200 m 6/8 0/8 - - -
Do, 20.02. 7:00 990 m 8/8 8/8 - - -
Do, 20.02. 1:00 1440 m 8/8 8/8 - - -
Mi, 19.02. 19:00 6600 m 8/8 8/8 - - -
Mi, 19.02. 13:00 1290 m 6/8 6/8 - - -
Mi, 19.02. 7:00 810 m 7/8 7/8 - - -
Mi, 19.02. 1:00 1800 m 8/8 2/8 - - -
Di, 18.02. 19:00 1800 m 8/8 8/8 - - -
Ortszeit Bedeckungsgrad in Achtel und Wolkenuntergrenze
Do, 20.02. 17:00 keine Wolken
Do, 20.02. 16:50 keine Wolken
Do, 20.02. 16:40 keine Wolken
Do, 20.02. 16:30 4(6900m)
Do, 20.02. 16:20 4(6900m)
Do, 20.02. 16:10 7(6900m) 7(7500m)
Do, 20.02. 16:00 8(6900m) 8(7500m)
Do, 20.02. 15:30 8(6900m)
Do, 20.02. 15:00 1(1200m) 5(7200m)
Do, 20.02. 14:30 3(1140m) 4(7200m)
Do, 20.02. 14:00 2(1170m) 4(7200m)
Ortszeit Luftdruck NN (hPa) Tendenz (hPa in 3 Std.)
Do, 20.02. 13:00 1022 - 1,9
Do, 20.02. 7:00 1025 - 0,9
Do, 20.02. 1:00 1027 - 0,7
Mi, 19.02. 19:00 1028 + 1,0
Mi, 19.02. 13:00 1026 + 1,8
Mi, 19.02. 7:00 1022 - 1,7
Mi, 19.02. 1:00 1026 - 1,9
Di, 18.02. 19:00 1029 - 0,1
Ortszeit Luftdruck NN (hPa) Tendenz (hPa in 3 Std.)
Do, 20.02. 17:00 1020 - 1,8
Do, 20.02. 16:50 1020 keine Meldung
Do, 20.02. 16:40 1020 keine Meldung
Do, 20.02. 16:30 1020 - 1,8
Do, 20.02. 16:20 1020 keine Meldung
Do, 20.02. 16:10 1020 keine Meldung
Do, 20.02. 16:00 1020 - 1,8
Do, 20.02. 15:30 1020 - 2,5
Do, 20.02. 15:00 1021 - 2,6
Do, 20.02. 14:30 1021 - 2,4
Do, 20.02. 14:00 1021 - 2,4
Ortszeit Schneehöhe (cm)
Do, 20.02. 13:00 0
Do, 20.02. 7:00 0
Do, 20.02. 1:00 0
Mi, 19.02. 19:00 0
Mi, 19.02. 13:00 0
Mi, 19.02. 7:00 0
Mi, 19.02. 1:00 0
Di, 18.02. 19:00 0
Ortszeit Schneehöhe (cm)
Do, 20.02. 17:00 0
Do, 20.02. 16:50 0
Do, 20.02. 16:40 0
Do, 20.02. 16:30 0
Do, 20.02. 16:20 0
Do, 20.02. 16:10 0
Do, 20.02. 16:00 0
Do, 20.02. 15:30 0
Do, 20.02. 15:00 0
Do, 20.02. 14:30 0
Do, 20.02. 14:00 0
Link zu dieser Seite / Seite empfehlen

Das Wetter in ...